createdAt,value
2023-04-26T00:04:35.281Z,4.32
2023-04-26T00:09:37.191Z,4.40
2023-04-26T00:14:39.326Z,4.05
2023-04-26T00:19:41.183Z,3.78
2023-04-26T00:24:43.434Z,3.58
2023-04-26T00:29:45.298Z,3.17
2023-04-26T00:34:47.227Z,3.80
2023-04-26T00:39:49.238Z,3.60
2023-04-26T00:44:55.211Z,3.45
2023-04-26T00:49:57.346Z,3.72
2023-04-26T00:54:59.301Z,4.35
2023-04-26T01:00:01.264Z,4.13
2023-04-26T01:05:03.060Z,3.88
2023-04-26T01:10:06.428Z,4.13
2023-04-26T01:15:08.750Z,3.03
2023-04-26T01:20:13.640Z,3.65
2023-04-26T01:25:17.951Z,3.65
2023-04-26T01:30:19.777Z,3.35
2023-04-26T01:35:21.902Z,3.70
2023-04-26T01:40:23.690Z,3.78
2023-04-26T01:45:25.654Z,3.22
2023-04-26T01:50:27.415Z,4.63
2023-04-26T01:55:29.279Z,4.00
2023-04-26T02:00:31.298Z,3.42
2023-04-26T02:05:33.068Z,3.92
2023-04-26T02:10:34.951Z,3.33
2023-04-26T02:15:37.324Z,3.10
2023-04-26T02:20:45.995Z,3.40
2023-04-26T02:25:49.106Z,3.10
2023-04-26T02:30:50.854Z,3.42
2023-04-26T02:35:52.673Z,3.42
2023-04-26T02:41:01.731Z,3.72
2023-04-26T02:46:06.748Z,3.50
2023-04-26T02:51:08.808Z,4.13
2023-04-26T02:56:11.620Z,3.53
2023-04-26T03:01:14.655Z,3.45
2023-04-26T03:06:16.459Z,3.63
2023-04-26T03:11:18.244Z,3.83
2023-04-26T03:16:23.442Z,3.53
2023-04-26T03:21:25.340Z,4.20
2023-04-26T03:26:27.160Z,3.30
2023-04-26T03:31:28.937Z,4.20
2023-04-26T03:36:30.920Z,4.10
2023-04-26T03:41:33.614Z,4.35
2023-04-26T03:46:35.576Z,3.75
2023-04-26T03:51:37.509Z,4.60
2023-04-26T03:56:40.151Z,4.38
2023-04-26T04:01:42.170Z,4.72
2023-04-26T04:06:44.030Z,4.00
2023-04-26T04:11:47.560Z,4.63
2023-04-26T04:16:49.517Z,3.88
2023-04-26T04:21:51.816Z,3.83
2023-04-26T04:26:54.509Z,4.00
2023-04-26T04:31:56.615Z,4.57
2023-04-26T04:36:58.366Z,4.60
2023-04-26T04:42:00.450Z,4.47
2023-04-26T04:47:02.321Z,4.65
2023-04-26T04:52:04.893Z,5.32
2023-04-26T04:57:06.777Z,4.68
2023-04-26T05:02:08.564Z,4.80
2023-04-26T05:07:10.577Z,4.50
2023-04-26T05:12:12.657Z,5.13
2023-04-26T05:17:14.430Z,5.47
2023-04-26T05:22:18.689Z,5.32
2023-04-26T05:27:20.778Z,5.82
2023-04-26T05:32:22.542Z,6.53
2023-04-26T05:37:24.411Z,5.80
2023-04-26T05:42:26.193Z,5.63
2023-04-26T05:47:28.077Z,6.10
2023-04-26T05:52:29.913Z,6.32
2023-04-26T05:57:32.049Z,5.90
2023-04-26T06:02:34.037Z,6.10
2023-04-26T06:07:36.097Z,5.93
2023-04-26T06:12:37.994Z,5.68
2023-04-26T06:17:41.643Z,5.70
2023-04-26T06:22:43.655Z,5.97
2023-04-26T06:27:45.516Z,6.32
2023-04-26T06:32:48.430Z,7.30
2023-04-26T06:37:50.665Z,5.72
2023-04-26T06:42:52.571Z,6.38
2023-04-26T06:47:54.746Z,6.63
2023-04-26T06:52:56.698Z,5.97
2023-04-26T06:57:58.456Z,6.28
2023-04-26T07:03:00.425Z,6.93
2023-04-26T07:08:02.297Z,7.78
2023-04-26T07:13:04.059Z,6.82
2023-04-26T07:18:05.874Z,5.97
2023-04-26T07:23:07.731Z,6.57
2023-04-26T07:28:09.464Z,6.57
2023-04-26T07:33:11.292Z,4.72
2023-04-26T07:38:19.572Z,4.72
2023-04-26T07:43:21.686Z,4.65
2023-04-26T07:48:23.459Z,5.13
2023-04-26T07:53:25.259Z,4.05
2023-04-26T07:58:27.029Z,5.05
2023-04-26T08:03:28.970Z,5.13
2023-04-26T08:08:32.302Z,4.63
2023-04-26T08:13:34.124Z,4.95
2023-04-26T08:18:36.072Z,4.60
2023-04-26T08:23:37.895Z,4.40
2023-04-26T08:28:40.205Z,3.97
2023-04-26T08:33:42.159Z,3.85
2023-04-26T08:38:43.960Z,4.15
2023-04-26T08:43:45.899Z,4.03
2023-04-26T08:48:57.548Z,4.25
2023-04-26T08:54:02.733Z,2.92
2023-04-26T08:59:05.968Z,3.88
2023-04-26T09:04:08.690Z,4.63
2023-04-26T09:09:13.705Z,3.53
2023-04-26T09:14:15.662Z,4.30
2023-04-26T09:19:17.539Z,3.80
2023-04-26T09:24:19.339Z,3.28
2023-04-26T09:29:21.355Z,2.67
2023-04-26T09:34:23.205Z,2.20
2023-04-26T09:39:40.396Z,3.67
2023-04-26T09:44:42.213Z,2.67
2023-04-26T09:49:48.789Z,3.30
2023-04-26T09:54:55.073Z,3.20
2023-04-26T09:59:56.852Z,2.65
2023-04-26T10:05:00.339Z,2.70
2023-04-26T10:10:04.047Z,3.53
2023-04-26T10:15:08.373Z,2.45
2023-04-26T10:20:13.288Z,2.47
2023-04-26T10:25:15.426Z,2.75
2023-04-26T10:30:19.798Z,2.65
2023-04-26T10:35:22.626Z,3.45
2023-04-26T10:40:26.379Z,2.60
2023-04-26T10:45:29.862Z,4.13
2023-04-26T10:50:31.854Z,2.67
2023-04-26T10:55:43.634Z,3.17
2023-04-26T11:01:17.259Z,2.63
2023-04-26T11:06:19.257Z,3.20
2023-04-26T11:11:27.095Z,3.10
2023-04-26T11:16:29.311Z,2.72
2023-04-26T11:21:32.760Z,2.40
2023-04-26T11:26:36.176Z,2.75
2023-04-26T11:31:37.974Z,2.83
2023-04-26T11:36:39.939Z,2.97
2023-04-26T11:41:41.801Z,3.00
2023-04-26T11:46:43.863Z,2.95
2023-04-26T11:51:49.699Z,2.30
2023-04-26T11:56:51.845Z,2.58
2023-04-26T12:01:55.686Z,2.72
2023-04-26T12:06:58.287Z,2.38
2023-04-26T12:12:02.232Z,2.63
2023-04-26T12:17:06.913Z,2.72
2023-04-26T12:22:09.220Z,2.65
2023-04-26T12:27:21.023Z,2.60
2023-04-26T12:32:22.966Z,2.95
2023-04-26T12:37:24.792Z,2.60
2023-04-26T12:42:26.776Z,3.17
2023-04-26T12:47:28.575Z,2.78
2023-04-26T12:52:31.021Z,2.55
2023-04-26T12:57:32.879Z,2.70
2023-04-26T13:02:34.871Z,3.13
2023-04-26T13:07:39.344Z,3.00
2023-04-26T13:12:41.146Z,2.90
2023-04-26T13:17:44.474Z,5.72
2023-04-26T13:22:46.353Z,2.78
2023-04-26T13:27:48.150Z,2.63
2023-04-26T13:32:50.023Z,2.88
2023-04-26T13:37:53.281Z,2.63
2023-04-26T13:42:55.060Z,2.50
2023-04-26T13:47:56.945Z,2.95
2023-04-26T13:52:59.919Z,2.97
2023-04-26T13:58:01.799Z,2.85
2023-04-26T14:03:04.009Z,2.70
2023-04-26T14:08:06.087Z,2.55
2023-04-26T14:13:07.955Z,2.75
2023-04-26T14:18:09.783Z,2.38
2023-04-26T14:23:11.646Z,2.75
2023-04-26T14:28:16.335Z,2.30
2023-04-26T14:33:18.574Z,3.20
2023-04-26T14:38:21.302Z,2.72
2023-04-26T14:43:23.706Z,2.53
2023-04-26T14:48:26.109Z,2.80
2023-04-26T14:53:28.045Z,2.88
2023-04-26T14:58:29.819Z,2.53
2023-04-26T15:03:32.766Z,3.10
2023-04-26T15:08:34.816Z,2.70
2023-04-26T15:13:36.849Z,2.65
2023-04-26T15:18:38.622Z,2.80
2023-04-26T15:23:40.638Z,2.75
2023-04-26T15:28:42.470Z,2.70
2023-04-26T15:33:44.214Z,2.75
2023-04-26T15:38:48.382Z,2.40
2023-04-26T15:43:57.207Z,2.80
2023-04-26T15:48:59.049Z,2.63
2023-04-26T15:54:00.882Z,2.33
2023-04-26T15:59:03.008Z,2.47
2023-04-26T16:04:05.211Z,2.15
2023-04-26T16:09:23.466Z,2.60
2023-04-26T16:14:26.386Z,2.47
2023-04-26T16:19:28.137Z,2.50
2023-04-26T16:24:29.961Z,2.30
2023-04-26T16:29:32.003Z,2.70
2023-04-26T16:34:33.763Z,2.45
2023-04-26T16:39:36.127Z,2.80
2023-04-26T16:44:37.910Z,2.85
2023-04-26T16:49:39.676Z,3.03
2023-04-26T16:54:41.805Z,2.38
2023-04-26T16:59:43.648Z,2.95
2023-04-26T17:04:45.802Z,3.53
2023-04-26T17:09:47.735Z,2.92
2023-04-26T17:14:49.557Z,3.50
2023-04-26T17:19:51.293Z,4.00
2023-04-26T17:24:53.053Z,3.58
2023-04-26T17:29:54.878Z,3.42
2023-04-26T17:34:56.701Z,3.30
2023-04-26T17:39:58.577Z,3.53
2023-04-26T17:45:05.118Z,3.53
2023-04-26T17:50:07.434Z,3.65
2023-04-26T17:55:10.142Z,3.35
2023-04-26T18:00:12.802Z,3.60
2023-04-26T18:05:14.863Z,2.92
2023-04-26T18:10:16.691Z,3.45
2023-04-26T18:15:18.795Z,4.57
2023-04-26T18:20:20.571Z,3.92
2023-04-26T18:25:22.623Z,4.72
2023-04-26T18:30:24.434Z,4.10
2023-04-26T18:35:26.957Z,4.80
2023-04-26T18:40:28.733Z,5.40
2023-04-26T18:45:30.620Z,5.22
2023-04-26T18:50:32.737Z,5.82
2023-04-26T18:55:34.559Z,4.97
2023-04-26T19:00:37.064Z,6.57
2023-04-26T19:05:42.588Z,4.85
2023-04-26T19:10:44.399Z,6.03
2023-04-26T19:15:46.371Z,5.50
2023-04-26T19:20:49.236Z,6.07
2023-04-26T19:25:51.508Z,5.93
2023-04-26T19:30:53.786Z,6.70
2023-04-26T19:35:58.982Z,5.85
2023-04-26T19:41:01.396Z,5.75
2023-04-26T19:46:11.601Z,6.30
2023-04-26T19:51:17.545Z,6.35
2023-04-26T19:56:19.417Z,5.85
2023-04-26T20:01:21.396Z,6.68
2023-04-26T20:06:23.245Z,6.03
2023-04-26T20:11:25.530Z,6.25
2023-04-26T20:16:27.604Z,6.40
2023-04-26T20:21:29.465Z,6.03
2023-04-26T20:26:31.219Z,6.03
2023-04-26T20:31:33.624Z,5.85
2023-04-26T20:36:35.462Z,5.63
2023-04-26T20:41:37.494Z,5.95
2023-04-26T20:46:39.260Z,5.30
2023-04-26T20:51:41.126Z,5.05
2023-04-26T20:56:42.893Z,5.43
2023-04-26T21:01:44.804Z,5.28
2023-04-26T21:06:46.675Z,5.57
2023-04-26T21:11:48.589Z,5.70
2023-04-26T21:16:50.472Z,5.40
2023-04-26T21:21:52.294Z,5.47
2023-04-26T21:26:54.076Z,5.57
2023-04-26T21:31:56.553Z,5.40
2023-04-26T21:36:58.325Z,5.32
2023-04-26T21:42:00.086Z,5.38
2023-04-26T21:47:01.994Z,5.68
2023-04-26T21:52:04.051Z,5.35
2023-04-26T21:57:06.851Z,4.88
2023-04-26T22:02:08.883Z,5.20
2023-04-26T22:07:10.715Z,5.50
2023-04-26T22:12:12.567Z,5.20
2023-04-26T22:17:14.373Z,5.90
2023-04-26T22:22:16.445Z,5.32
2023-04-26T22:27:18.528Z,5.93
2023-04-26T22:32:20.611Z,6.22
2023-04-26T22:37:22.422Z,6.70
2023-04-26T22:42:24.212Z,5.65
2023-04-26T22:47:26.049Z,6.70
2023-04-26T22:52:31.640Z,6.50
2023-04-26T22:57:35.575Z,6.97
2023-04-26T23:02:37.470Z,5.85
2023-04-26T23:07:40.108Z,6.60
2023-04-26T23:12:42.215Z,6.45
2023-04-26T23:17:44.130Z,6.60
2023-04-26T23:22:46.034Z,6.18
2023-04-26T23:27:47.831Z,6.47
2023-04-26T23:32:49.645Z,6.93
2023-04-26T23:37:52.563Z,7.40
2023-04-26T23:42:54.390Z,6.50
2023-04-26T23:47:56.180Z,6.45
2023-04-26T23:52:57.988Z,7.57
2023-04-26T23:57:59.976Z,6.90
